Disputanta, Kentucky
Current Conditions -  °F | °C
As of 12:35 PM on Thursday 23 Oct 2014 (Local Time) from KI39 Reporting Station
Clear Clear  
Wind Chill: 55°   Ceiling: Unl
Heat Index: 55°   Visibility: 7mi
Dew Point: 41°   Wind: 3mph
Humidity: 58%   Direction: 80°E
Pressure: 30.22"   Gusts: NA
Location:  37.3528°N, 84.3261°W
Report Text: KI39 231635Z AUTO 08003KT 7SM CLR 13/05 A3022 RMK AO2
Loading
Personal Weather Stations






























Interactive Weather Map
Tropical Storm Tracking
New forecast layout! Learn more

10-Day Weather Forecast

Advertisements
Track Severe Weather on mobile